sensor_id;sensor_type;location;lat;lon;timestamp;P1;durP1;ratioP1;P2;durP2;ratioP2
30185;SDS011;31152;49.190;8.122;2023-06-10T00:02:20;9.55;;;5.75;;
30185;SDS011;31152;49.190;8.122;2023-06-10T00:04:47;10.00;;;6.43;;
30185;SDS011;31152;49.190;8.122;2023-06-10T00:07:14;7.95;;;6.00;;
30185;SDS011;31152;49.190;8.122;2023-06-10T00:09:41;7.55;;;5.72;;
30185;SDS011;31152;49.190;8.122;2023-06-10T00:12:08;8.50;;;6.25;;
30185;SDS011;31152;49.190;8.122;2023-06-10T00:14:37;9.68;;;6.30;;
30185;SDS011;31152;49.190;8.122;2023-06-10T00:17:08;10.88;;;6.38;;
30185;SDS011;31152;49.190;8.122;2023-06-10T00:19:37;11.00;;;6.88;;
30185;SDS011;31152;49.190;8.122;2023-06-10T00:22:08;9.48;;;6.97;;
30185;SDS011;31152;49.190;8.122;2023-06-10T00:24:37;7.88;;;5.63;;
30185;SDS011;31152;49.190;8.122;2023-06-10T00:27:04;12.00;;;5.88;;
30185;SDS011;31152;49.190;8.122;2023-06-10T00:29:33;8.25;;;5.90;;
30185;SDS011;31152;49.190;8.122;2023-06-10T00:32:00;12.98;;;6.28;;
30185;SDS011;31152;49.190;8.122;2023-06-10T00:34:27;10.27;;;6.15;;
30185;SDS011;31152;49.190;8.122;2023-06-10T00:36:53;13.43;;;6.43;;
30185;SDS011;31152;49.190;8.122;2023-06-10T00:39:20;10.13;;;5.63;;
30185;SDS011;31152;49.190;8.122;2023-06-10T00:41:47;9.52;;;6.05;;
30185;SDS011;31152;49.190;8.122;2023-06-10T00:44:16;9.07;;;5.93;;
30185;SDS011;31152;49.190;8.122;2023-06-10T00:46:43;9.07;;;6.38;;
30185;SDS011;31152;49.190;8.122;2023-06-10T00:49:10;10.60;;;5.57;;
30185;SDS011;31152;49.190;8.122;2023-06-10T00:51:37;9.68;;;5.90;;
30185;SDS011;31152;49.190;8.122;2023-06-10T00:54:05;8.63;;;5.63;;
30185;SDS011;31152;49.190;8.122;2023-06-10T00:56:33;9.70;;;5.40;;
30185;SDS011;31152;49.190;8.122;2023-06-10T00:59:03;7.50;;;5.85;;
30185;SDS011;31152;49.190;8.122;2023-06-10T01:01:30;9.40;;;6.20;;
30185;SDS011;31152;49.190;8.122;2023-06-10T01:04:00;12.05;;;6.20;;
30185;SDS011;31152;49.190;8.122;2023-06-10T01:06:36;9.20;;;5.82;;
30185;SDS011;31152;49.190;8.122;2023-06-10T01:11:57;8.70;;;5.53;;
30185;SDS011;31152;49.190;8.122;2023-06-10T01:14:29;9.65;;;5.75;;
30185;SDS011;31152;49.190;8.122;2023-06-10T01:16:58;11.40;;;5.47;;
30185;SDS011;31152;49.190;8.122;2023-06-10T01:19:26;8.07;;;5.57;;
30185;SDS011;31152;49.190;8.122;2023-06-10T01:21:54;11.48;;;5.72;;
30185;SDS011;31152;49.190;8.122;2023-06-10T01:24:21;7.32;;;6.00;;
30185;SDS011;31152;49.190;8.122;2023-06-10T01:26:52;8.32;;;5.38;;
30185;SDS011;31152;49.190;8.122;2023-06-10T01:29:36;13.32;;;5.22;;
30185;SDS011;31152;49.190;8.122;2023-06-10T01:32:12;8.98;;;5.80;;
30185;SDS011;31152;49.190;8.122;2023-06-10T01:34:44;10.15;;;5.68;;
30185;SDS011;31152;49.190;8.122;2023-06-10T01:37:12;6.80;;;5.25;;
30185;SDS011;31152;49.190;8.122;2023-06-10T01:39:42;6.85;;;5.53;;
30185;SDS011;31152;49.190;8.122;2023-06-10T01:42:09;10.85;;;5.63;;
30185;SDS011;31152;49.190;8.122;2023-06-10T01:44:38;9.68;;;5.78;;
30185;SDS011;31152;49.190;8.122;2023-06-10T01:47:06;7.05;;;4.95;;
30185;SDS011;31152;49.190;8.122;2023-06-10T01:49:32;8.48;;;5.65;;
30185;SDS011;31152;49.190;8.122;2023-06-10T01:52:02;8.05;;;5.68;;
30185;SDS011;31152;49.190;8.122;2023-06-10T01:54:29;9.57;;;5.13;;
30185;SDS011;31152;49.190;8.122;2023-06-10T01:56:55;5.93;;;4.60;;
30185;SDS011;31152;49.190;8.122;2023-06-10T01:59:25;6.60;;;5.18;;
30185;SDS011;31152;49.190;8.122;2023-06-10T02:01:51;8.15;;;5.53;;
30185;SDS011;31152;49.190;8.122;2023-06-10T02:04:18;8.10;;;5.40;;
30185;SDS011;31152;49.190;8.122;2023-06-10T02:06:45;13.30;;;5.43;;
30185;SDS011;31152;49.190;8.122;2023-06-10T02:09:11;7.53;;;5.20;;
30185;SDS011;31152;49.190;8.122;2023-06-10T02:11:38;7.32;;;5.47;;
30185;SDS011;31152;49.190;8.122;2023-06-10T02:14:06;9.30;;;5.13;;
30185;SDS011;31152;49.190;8.122;2023-06-10T02:16:32;13.77;;;5.78;;
30185;SDS011;31152;49.190;8.122;2023-06-10T02:18:59;10.27;;;4.90;;
30185;SDS011;31152;49.190;8.122;2023-06-10T02:21:26;9.25;;;5.70;;
30185;SDS011;31152;49.190;8.122;2023-06-10T02:23:53;10.40;;;5.63;;
30185;SDS011;31152;49.190;8.122;2023-06-10T02:26:20;11.50;;;5.40;;
30185;SDS011;31152;49.190;8.122;2023-06-10T02:28:47;12.30;;;5.75;;
30185;SDS011;31152;49.190;8.122;2023-06-10T02:31:16;9.70;;;5.38;;
30185;SDS011;31152;49.190;8.122;2023-06-10T02:33:44;7.05;;;5.72;;
30185;SDS011;31152;49.190;8.122;2023-06-10T02:36:11;7.55;;;5.50;;
30185;SDS011;31152;49.190;8.122;2023-06-10T02:38:39;7.80;;;6.00;;
30185;SDS011;31152;49.190;8.122;2023-06-10T02:41:08;6.45;;;5.07;;
30185;SDS011;31152;49.190;8.122;2023-06-10T02:43:35;7.40;;;5.80;;
30185;SDS011;31152;49.190;8.122;2023-06-10T02:46:02;8.77;;;6.00;;
30185;SDS011;31152;49.190;8.122;2023-06-10T02:48:29;10.48;;;5.47;;
30185;SDS011;31152;49.190;8.122;2023-06-10T02:50:55;7.32;;;5.57;;
30185;SDS011;31152;49.190;8.122;2023-06-10T02:53:24;8.40;;;5.55;;
30185;SDS011;31152;49.190;8.122;2023-06-10T02:55:53;8.38;;;5.70;;
30185;SDS011;31152;49.190;8.122;2023-06-10T02:58:22;9.85;;;5.53;;
30185;SDS011;31152;49.190;8.122;2023-06-10T03:00:50;7.25;;;5.43;;
30185;SDS011;31152;49.190;8.122;2023-06-10T03:03:17;7.25;;;5.78;;
30185;SDS011;31152;49.190;8.122;2023-06-10T03:05:46;8.43;;;5.25;;
30185;SDS011;31152;49.190;8.122;2023-06-10T03:08:13;10.05;;;5.70;;
30185;SDS011;31152;49.190;8.122;2023-06-10T03:10:42;13.45;;;6.13;;
30185;SDS011;31152;49.190;8.122;2023-06-10T03:13:11;8.88;;;5.38;;
30185;SDS011;31152;49.190;8.122;2023-06-10T03:15:41;9.88;;;6.13;;
30185;SDS011;31152;49.190;8.122;2023-06-10T03:18:07;9.00;;;5.47;;
30185;SDS011;31152;49.190;8.122;2023-06-10T03:20:34;11.98;;;5.63;;
30185;SDS011;31152;49.190;8.122;2023-06-10T03:23:05;7.13;;;5.57;;
30185;SDS011;31152;49.190;8.122;2023-06-10T03:25:32;7.40;;;5.63;;
30185;SDS011;31152;49.190;8.122;2023-06-10T03:27:59;7.93;;;5.47;;
30185;SDS011;31152;49.190;8.122;2023-06-10T03:30:27;6.55;;;5.65;;
30185;SDS011;31152;49.190;8.122;2023-06-10T03:32:54;6.40;;;4.95;;
30185;SDS011;31152;49.190;8.122;2023-06-10T03:35:23;14.32;;;5.75;;
30185;SDS011;31152;49.190;8.122;2023-06-10T03:37:50;6.75;;;5.40;;
30185;SDS011;31152;49.190;8.122;2023-06-10T03:40:16;8.00;;;5.43;;
30185;SDS011;31152;49.190;8.122;2023-06-10T03:42:43;8.00;;;5.55;;
30185;SDS011;31152;49.190;8.122;2023-06-10T03:45:12;7.32;;;4.88;;
30185;SDS011;31152;49.190;8.122;2023-06-10T03:47:39;10.73;;;5.28;;
30185;SDS011;31152;49.190;8.122;2023-06-10T03:50:07;8.98;;;5.15;;
30185;SDS011;31152;49.190;8.122;2023-06-10T03:52:35;7.85;;;5.57;;
30185;SDS011;31152;49.190;8.122;2023-06-10T03:55:02;7.10;;;5.30;;
30185;SDS011;31152;49.190;8.122;2023-06-10T03:57:29;9.95;;;5.70;;
30185;SDS011;31152;49.190;8.122;2023-06-10T03:59:56;10.25;;;5.57;;
30185;SDS011;31152;49.190;8.122;2023-06-10T04:02:23;7.57;;;5.18;;
30185;SDS011;31152;49.190;8.122;2023-06-10T04:04:51;7.15;;;5.45;;
30185;SDS011;31152;49.190;8.122;2023-06-10T04:07:18;8.05;;;5.40;;
30185;SDS011;31152;49.190;8.122;2023-06-10T04:09:46;11.07;;;5.53;;
30185;SDS011;31152;49.190;8.122;2023-06-10T04:12:13;9.40;;;5.72;;
30185;SDS011;31152;49.190;8.122;2023-06-10T04:14:40;8.13;;;5.18;;
30185;SDS011;31152;49.190;8.122;2023-06-10T04:17:08;7.72;;;6.05;;
30185;SDS011;31152;49.190;8.122;2023-06-10T04:19:35;8.05;;;5.57;;
30185;SDS011;31152;49.190;8.122;2023-06-10T04:22:02;10.77;;;5.85;;
30185;SDS011;31152;49.190;8.122;2023-06-10T04:24:30;7.95;;;5.28;;
30185;SDS011;31152;49.190;8.122;2023-06-10T04:26:59;7.40;;;5.50;;
30185;SDS011;31152;49.190;8.122;2023-06-10T04:29:26;6.85;;;5.20;;
30185;SDS011;31152;49.190;8.122;2023-06-10T04:31:57;10.38;;;5.60;;
30185;SDS011;31152;49.190;8.122;2023-06-10T04:34:24;8.70;;;5.60;;
30185;SDS011;31152;49.190;8.122;2023-06-10T04:36:51;10.18;;;5.40;;
30185;SDS011;31152;49.190;8.122;2023-06-10T04:39:20;8.88;;;5.72;;
30185;SDS011;31152;49.190;8.122;2023-06-10T04:41:48;8.40;;;6.47;;
30185;SDS011;31152;49.190;8.122;2023-06-10T04:44:15;7.80;;;5.63;;
30185;SDS011;31152;49.190;8.122;2023-06-10T04:46:42;10.63;;;6.63;;
30185;SDS011;31152;49.190;8.122;2023-06-10T04:49:09;20.95;;;5.88;;
30185;SDS011;31152;49.190;8.122;2023-06-10T04:51:35;8.57;;;6.13;;
30185;SDS011;31152;49.190;8.122;2023-06-10T04:54:04;10.98;;;6.13;;
30185;SDS011;31152;49.190;8.122;2023-06-10T04:56:30;9.35;;;5.45;;
30185;SDS011;31152;49.190;8.122;2023-06-10T04:58:57;9.30;;;6.07;;
30185;SDS011;31152;49.190;8.122;2023-06-10T05:01:25;7.18;;;5.50;;
30185;SDS011;31152;49.190;8.122;2023-06-10T05:03:54;8.30;;;5.45;;
30185;SDS011;31152;49.190;8.122;2023-06-10T05:06:21;10.70;;;6.07;;
30185;SDS011;31152;49.190;8.122;2023-06-10T05:08:50;10.90;;;6.22;;
30185;SDS011;31152;49.190;8.122;2023-06-10T05:11:17;9.20;;;5.70;;
30185;SDS011;31152;49.190;8.122;2023-06-10T05:13:43;8.90;;;5.80;;
30185;SDS011;31152;49.190;8.122;2023-06-10T05:16:10;10.75;;;6.30;;
30185;SDS011;31152;49.190;8.122;2023-06-10T05:18:41;8.45;;;5.75;;
30185;SDS011;31152;49.190;8.122;2023-06-10T05:21:08;10.38;;;6.18;;
30185;SDS011;31152;49.190;8.122;2023-06-10T05:23:35;9.52;;;5.57;;
30185;SDS011;31152;49.190;8.122;2023-06-10T05:26:02;9.93;;;5.50;;
30185;SDS011;31152;49.190;8.122;2023-06-10T05:28:28;8.32;;;5.93;;
30185;SDS011;31152;49.190;8.122;2023-06-10T05:30:55;9.85;;;6.10;;
30185;SDS011;31152;49.190;8.122;2023-06-10T05:33:22;7.75;;;6.20;;
30185;SDS011;31152;49.190;8.122;2023-06-10T05:35:48;8.82;;;6.40;;
30185;SDS011;31152;49.190;8.122;2023-06-10T05:38:16;6.70;;;5.60;;
30185;SDS011;31152;49.190;8.122;2023-06-10T05:40:42;9.35;;;6.40;;
30185;SDS011;31152;49.190;8.122;2023-06-10T05:43:09;8.68;;;6.00;;
30185;SDS011;31152;49.190;8.122;2023-06-10T05:45:37;11.57;;;6.47;;
30185;SDS011;31152;49.190;8.122;2023-06-10T05:48:04;7.90;;;5.90;;
30185;SDS011;31152;49.190;8.122;2023-06-10T05:50:31;9.13;;;6.00;;
30185;SDS011;31152;49.190;8.122;2023-06-10T05:53:04;9.67;;;6.37;;
30185;SDS011;31152;49.190;8.122;2023-06-10T05:55:44;9.10;;;5.85;;
30185;SDS011;31152;49.190;8.122;2023-06-10T05:58:12;8.13;;;6.38;;
30185;SDS011;31152;49.190;8.122;2023-06-10T06:00:40;11.88;;;6.57;;
30185;SDS011;31152;49.190;8.122;2023-06-10T06:03:07;8.77;;;6.18;;
30185;SDS011;31152;49.190;8.122;2023-06-10T06:05:38;9.48;;;6.40;;
30185;SDS011;31152;49.190;8.122;2023-06-10T06:08:08;9.93;;;6.45;;
30185;SDS011;31152;49.190;8.122;2023-06-10T06:10:37;10.77;;;6.00;;
30185;SDS011;31152;49.190;8.122;2023-06-10T06:13:06;11.15;;;6.50;;
30185;SDS011;31152;49.190;8.122;2023-06-10T06:15:33;9.70;;;6.13;;
30185;SDS011;31152;49.190;8.122;2023-06-10T06:18:00;8.32;;;6.68;;
30185;SDS011;31152;49.190;8.122;2023-06-10T06:20:27;8.13;;;6.38;;
30185;SDS011;31152;49.190;8.122;2023-06-10T06:22:54;8.52;;;6.72;;
30185;SDS011;31152;49.190;8.122;2023-06-10T06:25:21;11.07;;;6.47;;
30185;SDS011;31152;49.190;8.122;2023-06-10T06:27:50;8.45;;;6.30;;
30185;SDS011;31152;49.190;8.122;2023-06-10T06:30:16;12.38;;;6.90;;
30185;SDS011;31152;49.190;8.122;2023-06-10T06:32:43;10.63;;;5.90;;
30185;SDS011;31152;49.190;8.122;2023-06-10T06:35:11;12.68;;;5.97;;
30185;SDS011;31152;49.190;8.122;2023-06-10T06:37:38;11.05;;;6.32;;
30185;SDS011;31152;49.190;8.122;2023-06-10T06:40:05;10.45;;;6.47;;
30185;SDS011;31152;49.190;8.122;2023-06-10T06:42:32;8.90;;;6.13;;
30185;SDS011;31152;49.190;8.122;2023-06-10T06:44:59;8.82;;;6.50;;
30185;SDS011;31152;49.190;8.122;2023-06-10T06:47:25;9.65;;;6.63;;
30185;SDS011;31152;49.190;8.122;2023-06-10T06:49:52;11.82;;;6.32;;
30185;SDS011;31152;49.190;8.122;2023-06-10T06:52:19;9.02;;;6.22;;
30185;SDS011;31152;49.190;8.122;2023-06-10T06:54:46;6.85;;;5.82;;
30185;SDS011;31152;49.190;8.122;2023-06-10T06:57:18;9.43;;;6.10;;
30185;SDS011;31152;49.190;8.122;2023-06-10T06:59:47;10.15;;;6.18;;
30185;SDS011;31152;49.190;8.122;2023-06-10T07:02:14;10.07;;;6.40;;
30185;SDS011;31152;49.190;8.122;2023-06-10T07:04:40;8.77;;;6.30;;
30185;SDS011;31152;49.190;8.122;2023-06-10T07:07:07;9.43;;;6.18;;
30185;SDS011;31152;49.190;8.122;2023-06-10T07:09:37;8.20;;;5.45;;
30185;SDS011;31152;49.190;8.122;2023-06-10T07:12:04;9.07;;;5.65;;
30185;SDS011;31152;49.190;8.122;2023-06-10T07:14:31;7.10;;;5.35;;
30185;SDS011;31152;49.190;8.122;2023-06-10T07:16:58;9.43;;;5.57;;
30185;SDS011;31152;49.190;8.122;2023-06-10T07:19:25;7.35;;;5.82;;
30185;SDS011;31152;49.190;8.122;2023-06-10T07:21:52;7.45;;;5.60;;
30185;SDS011;31152;49.190;8.122;2023-06-10T07:24:18;7.72;;;5.97;;
30185;SDS011;31152;49.190;8.122;2023-06-10T07:26:46;8.63;;;5.80;;
30185;SDS011;31152;49.190;8.122;2023-06-10T07:29:13;7.53;;;5.47;;
30185;SDS011;31152;49.190;8.122;2023-06-10T07:31:40;10.48;;;5.80;;
30185;SDS011;31152;49.190;8.122;2023-06-10T07:34:07;10.73;;;6.10;;
30185;SDS011;31152;49.190;8.122;2023-06-10T07:36:34;10.43;;;5.38;;
30185;SDS011;31152;49.190;8.122;2023-06-10T07:39:02;9.48;;;6.05;;
30185;SDS011;31152;49.190;8.122;2023-06-10T07:41:29;8.00;;;6.20;;
30185;SDS011;31152;49.190;8.122;2023-06-10T07:43:56;8.55;;;5.78;;
30185;SDS011;31152;49.190;8.122;2023-06-10T07:46:25;9.85;;;5.53;;
30185;SDS011;31152;49.190;8.122;2023-06-10T07:48:53;7.18;;;5.53;;
30185;SDS011;31152;49.190;8.122;2023-06-10T07:51:21;6.03;;;5.30;;
30185;SDS011;31152;49.190;8.122;2023-06-10T07:53:50;7.60;;;4.90;;
30185;SDS011;31152;49.190;8.122;2023-06-10T07:56:17;9.10;;;5.95;;
30185;SDS011;31152;49.190;8.122;2023-06-10T07:58:47;7.22;;;5.40;;
30185;SDS011;31152;49.190;8.122;2023-06-10T08:01:14;7.95;;;5.55;;
30185;SDS011;31152;49.190;8.122;2023-06-10T08:03:41;10.77;;;5.50;;
30185;SDS011;31152;49.190;8.122;2023-06-10T08:06:11;10.18;;;5.47;;
30185;SDS011;31152;49.190;8.122;2023-06-10T08:08:38;7.63;;;5.60;;
30185;SDS011;31152;49.190;8.122;2023-06-10T08:11:12;8.10;;;5.28;;
30185;SDS011;31152;49.190;8.122;2023-06-10T08:13:42;7.93;;;4.75;;
30185;SDS011;31152;49.190;8.122;2023-06-10T08:16:11;6.57;;;4.55;;
30185;SDS011;31152;49.190;8.122;2023-06-10T08:18:41;5.35;;;4.30;;
30185;SDS011;31152;49.190;8.122;2023-06-10T08:21:10;6.18;;;4.70;;
30185;SDS011;31152;49.190;8.122;2023-06-10T08:23:36;9.60;;;4.45;;
30185;SDS011;31152;49.190;8.122;2023-06-10T08:26:03;8.18;;;5.70;;
30185;SDS011;31152;49.190;8.122;2023-06-10T08:28:30;7.95;;;4.82;;
30185;SDS011;31152;49.190;8.122;2023-06-10T08:30:56;6.38;;;4.85;;
30185;SDS011;31152;49.190;8.122;2023-06-10T08:33:26;6.95;;;4.97;;
30185;SDS011;31152;49.190;8.122;2023-06-10T08:35:52;5.10;;;4.35;;
30185;SDS011;31152;49.190;8.122;2023-06-10T08:38:19;4.80;;;4.38;;
30185;SDS011;31152;49.190;8.122;2023-06-10T08:40:46;6.88;;;4.53;;
30185;SDS011;31152;49.190;8.122;2023-06-10T08:43:22;6.93;;;4.40;;
30185;SDS011;31152;49.190;8.122;2023-06-10T08:46:17;7.63;;;4.20;;
30185;SDS011;31152;49.190;8.122;2023-06-10T08:48:44;5.05;;;4.55;;
30185;SDS011;31152;49.190;8.122;2023-06-10T08:51:15;6.25;;;4.25;;
30185;SDS011;31152;49.190;8.122;2023-06-10T08:53:52;6.78;;;4.22;;
30185;SDS011;31152;49.190;8.122;2023-06-10T08:56:26;6.82;;;4.55;;
30185;SDS011;31152;49.190;8.122;2023-06-10T08:58:56;5.22;;;4.72;;
30185;SDS011;31152;49.190;8.122;2023-06-10T09:01:25;8.18;;;4.60;;
30185;SDS011;31152;49.190;8.122;2023-06-10T09:03:54;8.57;;;4.32;;
30185;SDS011;31152;49.190;8.122;2023-06-10T09:06:22;6.70;;;4.80;;
30185;SDS011;31152;49.190;8.122;2023-06-10T09:08:49;5.80;;;4.35;;
30185;SDS011;31152;49.190;8.122;2023-06-10T09:11:16;6.93;;;4.65;;
30185;SDS011;31152;49.190;8.122;2023-06-10T09:13:44;5.13;;;4.30;;
30185;SDS011;31152;49.190;8.122;2023-06-10T09:16:10;5.05;;;4.53;;
30185;SDS011;31152;49.190;8.122;2023-06-10T09:18:39;5.72;;;4.65;;
30185;SDS011;31152;49.190;8.122;2023-06-10T09:21:06;6.93;;;4.72;;
30185;SDS011;31152;49.190;8.122;2023-06-10T09:23:32;7.07;;;4.45;;
30185;SDS011;31152;49.190;8.122;2023-06-10T09:26:00;4.82;;;4.30;;
30185;SDS011;31152;49.190;8.122;2023-06-10T09:28:27;4.82;;;4.28;;
30185;SDS011;31152;49.190;8.122;2023-06-10T09:31:03;4.85;;;4.28;;
30185;SDS011;31152;49.190;8.122;2023-06-10T09:33:34;6.47;;;4.40;;
30185;SDS011;31152;49.190;8.122;2023-06-10T09:36:04;4.87;;;4.37;;
30185;SDS011;31152;49.190;8.122;2023-06-10T09:38:33;4.90;;;4.07;;
30185;SDS011;31152;49.190;8.122;2023-06-10T09:41:01;6.18;;;4.78;;
30185;SDS011;31152;49.190;8.122;2023-06-10T09:43:39;6.75;;;4.32;;
30185;SDS011;31152;49.190;8.122;2023-06-10T09:46:06;5.90;;;4.25;;
30185;SDS011;31152;49.190;8.122;2023-06-10T09:48:40;5.22;;;4.43;;
30185;SDS011;31152;49.190;8.122;2023-06-10T09:51:09;5.57;;;4.10;;
30185;SDS011;31152;49.190;8.122;2023-06-10T09:53:37;7.93;;;4.35;;
30185;SDS011;31152;49.190;8.122;2023-06-10T09:56:03;7.13;;;4.40;;
30185;SDS011;31152;49.190;8.122;2023-06-10T10:01:08;5.55;;;4.38;;
30185;SDS011;31152;49.190;8.122;2023-06-10T10:03:45;5.83;;;4.10;;
30185;SDS011;31152;49.190;8.122;2023-06-10T10:06:16;4.90;;;3.90;;
30185;SDS011;31152;49.190;8.122;2023-06-10T10:08:47;4.03;;;3.58;;
30185;SDS011;31152;49.190;8.122;2023-06-10T10:11:16;5.53;;;4.18;;
30185;SDS011;31152;49.190;8.122;2023-06-10T10:13:45;7.28;;;4.28;;
30185;SDS011;31152;49.190;8.122;2023-06-10T10:16:20;5.80;;;3.83;;
30185;SDS011;31152;49.190;8.122;2023-06-10T10:18:51;6.00;;;4.07;;
30185;SDS011;31152;49.190;8.122;2023-06-10T10:21:22;6.97;;;4.38;;
30185;SDS011;31152;49.190;8.122;2023-06-10T10:24:09;6.43;;;4.10;;
30185;SDS011;31152;49.190;8.122;2023-06-10T10:26:48;5.20;;;4.40;;
30185;SDS011;31152;49.190;8.122;2023-06-10T10:29:20;4.78;;;4.03;;
30185;SDS011;31152;49.190;8.122;2023-06-10T10:31:55;7.07;;;4.25;;
30185;SDS011;31152;49.190;8.122;2023-06-10T10:34:37;5.72;;;4.05;;
30185;SDS011;31152;49.190;8.122;2023-06-10T10:37:31;5.15;;;4.03;;
30185;SDS011;31152;49.190;8.122;2023-06-10T10:39:58;5.85;;;4.40;;
30185;SDS011;31152;49.190;8.122;2023-06-10T10:42:29;7.60;;;4.20;;
30185;SDS011;31152;49.190;8.122;2023-06-10T10:44:57;5.65;;;4.45;;
30185;SDS011;31152;49.190;8.122;2023-06-10T10:47:26;6.20;;;4.60;;
30185;SDS011;31152;49.190;8.122;2023-06-10T10:49:55;9.02;;;4.13;;
30185;SDS011;31152;49.190;8.122;2023-06-10T10:52:27;5.25;;;4.72;;
30185;SDS011;31152;49.190;8.122;2023-06-10T10:55:14;5.57;;;4.65;;
30185;SDS011;31152;49.190;8.122;2023-06-10T10:57:41;7.35;;;4.93;;
30185;SDS011;31152;49.190;8.122;2023-06-10T11:00:08;5.60;;;4.65;;
30185;SDS011;31152;49.190;8.122;2023-06-10T11:05:13;6.80;;;4.28;;
30185;SDS011;31152;49.190;8.122;2023-06-10T11:07:54;8.25;;;4.25;;
30185;SDS011;31152;49.190;8.122;2023-06-10T11:10:56;4.60;;;4.05;;
30185;SDS011;31152;49.190;8.122;2023-06-10T11:13:21;5.07;;;4.15;;
30185;SDS011;31152;49.190;8.122;2023-06-10T11:15:49;4.97;;;4.07;;
30185;SDS011;31152;49.190;8.122;2023-06-10T11:18:23;7.25;;;4.40;;
30185;SDS011;31152;49.190;8.122;2023-06-10T11:21:01;6.82;;;4.60;;
30185;SDS011;31152;49.190;8.122;2023-06-10T11:23:34;4.93;;;4.15;;
30185;SDS011;31152;49.190;8.122;2023-06-10T11:28:38;5.18;;;4.18;;
30185;SDS011;31152;49.190;8.122;2023-06-10T11:31:05;9.48;;;4.63;;
30185;SDS011;31152;49.190;8.122;2023-06-10T11:33:33;5.60;;;4.55;;
30185;SDS011;31152;49.190;8.122;2023-06-10T11:36:06;7.40;;;4.28;;
30185;SDS011;31152;49.190;8.122;2023-06-10T11:38:33;4.75;;;4.20;;
30185;SDS011;31152;49.190;8.122;2023-06-10T11:41:01;8.30;;;4.60;;
30185;SDS011;31152;49.190;8.122;2023-06-10T11:43:28;4.40;;;4.00;;
30185;SDS011;31152;49.190;8.122;2023-06-10T11:45:56;6.90;;;4.55;;
30185;SDS011;31152;49.190;8.122;2023-06-10T11:48:23;6.75;;;4.63;;
30185;SDS011;31152;49.190;8.122;2023-06-10T11:50:50;6.28;;;4.30;;
30185;SDS011;31152;49.190;8.122;2023-06-10T11:53:19;6.07;;;4.25;;
30185;SDS011;31152;49.190;8.122;2023-06-10T11:55:46;7.15;;;4.55;;
30185;SDS011;31152;49.190;8.122;2023-06-10T12:00:52;5.70;;;4.00;;
30185;SDS011;31152;49.190;8.122;2023-06-10T12:03:20;6.97;;;4.40;;
30185;SDS011;31152;49.190;8.122;2023-06-10T12:05:59;5.07;;;4.55;;
30185;SDS011;31152;49.190;8.122;2023-06-10T12:08:28;6.03;;;4.55;;
30185;SDS011;31152;49.190;8.122;2023-06-10T12:10:55;7.20;;;3.97;;
30185;SDS011;31152;49.190;8.122;2023-06-10T12:13:25;6.50;;;4.07;;
30185;SDS011;31152;49.190;8.122;2023-06-10T12:15:53;6.00;;;4.22;;
30185;SDS011;31152;49.190;8.122;2023-06-10T12:18:21;4.65;;;4.10;;
30185;SDS011;31152;49.190;8.122;2023-06-10T12:20:49;6.50;;;4.20;;
30185;SDS011;31152;49.190;8.122;2023-06-10T12:23:18;7.22;;;4.18;;
30185;SDS011;31152;49.190;8.122;2023-06-10T12:25:49;8.80;;;4.40;;
30185;SDS011;31152;49.190;8.122;2023-06-10T12:28:26;5.13;;;3.97;;
30185;SDS011;31152;49.190;8.122;2023-06-10T12:31:08;5.75;;;4.13;;
30185;SDS011;31152;49.190;8.122;2023-06-10T12:33:35;5.22;;;4.72;;
30185;SDS011;31152;49.190;8.122;2023-06-10T12:36:02;9.80;;;5.03;;
30185;SDS011;31152;49.190;8.122;2023-06-10T12:38:29;4.80;;;4.28;;
30185;SDS011;31152;49.190;8.122;2023-06-10T12:41:01;5.78;;;4.43;;
30185;SDS011;31152;49.190;8.122;2023-06-10T12:43:30;5.25;;;4.25;;
30185;SDS011;31152;49.190;8.122;2023-06-10T12:46:08;6.45;;;4.22;;
30185;SDS011;31152;49.190;8.122;2023-06-10T12:48:35;10.23;;;4.22;;
30185;SDS011;31152;49.190;8.122;2023-06-10T12:51:04;4.25;;;3.83;;
30185;SDS011;31152;49.190;8.122;2023-06-10T12:53:32;4.32;;;3.78;;
30185;SDS011;31152;49.190;8.122;2023-06-10T12:56:04;7.85;;;4.05;;
30185;SDS011;31152;49.190;8.122;2023-06-10T12:58:31;6.03;;;4.18;;
30185;SDS011;31152;49.190;8.122;2023-06-10T13:00:58;5.78;;;3.72;;
30185;SDS011;31152;49.190;8.122;2023-06-10T13:03:25;6.43;;;3.95;;
30185;SDS011;31152;49.190;8.122;2023-06-10T13:05:52;4.28;;;3.85;;
30185;SDS011;31152;49.190;8.122;2023-06-10T13:08:19;6.22;;;4.22;;
30185;SDS011;31152;49.190;8.122;2023-06-10T13:10:46;8.73;;;4.07;;
30185;SDS011;31152;49.190;8.122;2023-06-10T13:13:14;5.03;;;3.40;;
30185;SDS011;31152;49.190;8.122;2023-06-10T13:15:41;4.90;;;3.28;;
30185;SDS011;31152;49.190;8.122;2023-06-10T13:18:09;6.65;;;3.22;;
30185;SDS011;31152;49.190;8.122;2023-06-10T13:20:36;6.43;;;3.97;;
30185;SDS011;31152;49.190;8.122;2023-06-10T13:23:03;7.30;;;4.30;;
30185;SDS011;31152;49.190;8.122;2023-06-10T13:25:32;4.45;;;4.05;;
30185;SDS011;31152;49.190;8.122;2023-06-10T13:27:59;6.65;;;4.00;;
30185;SDS011;31152;49.190;8.122;2023-06-10T13:30:31;5.97;;;4.18;;
30185;SDS011;31152;49.190;8.122;2023-06-10T13:32:57;8.50;;;4.55;;
30185;SDS011;31152;49.190;8.122;2023-06-10T13:35:24;5.70;;;4.05;;
30185;SDS011;31152;49.190;8.122;2023-06-10T13:37:51;8.50;;;4.00;;
30185;SDS011;31152;49.190;8.122;2023-06-10T13:40:18;6.10;;;3.83;;
30185;SDS011;31152;49.190;8.122;2023-06-10T13:42:46;5.95;;;4.07;;
30185;SDS011;31152;49.190;8.122;2023-06-10T13:45:16;5.55;;;3.72;;
30185;SDS011;31152;49.190;8.122;2023-06-10T13:47:43;4.15;;;3.75;;
30185;SDS011;31152;49.190;8.122;2023-06-10T13:50:10;6.50;;;3.75;;
30185;SDS011;31152;49.190;8.122;2023-06-10T13:52:39;4.93;;;4.10;;
30185;SDS011;31152;49.190;8.122;2023-06-10T13:55:06;5.32;;;3.92;;
30185;SDS011;31152;49.190;8.122;2023-06-10T13:57:34;6.07;;;3.67;;
30185;SDS011;31152;49.190;8.122;2023-06-10T14:00:01;3.53;;;3.20;;
30185;SDS011;31152;49.190;8.122;2023-06-10T14:02:28;4.07;;;3.67;;
30185;SDS011;31152;49.190;8.122;2023-06-10T14:04:54;5.63;;;3.42;;
30185;SDS011;31152;49.190;8.122;2023-06-10T14:07:21;7.43;;;3.20;;
30185;SDS011;31152;49.190;8.122;2023-06-10T14:09:49;8.18;;;3.30;;
30185;SDS011;31152;49.190;8.122;2023-06-10T14:12:17;5.55;;;3.55;;
30185;SDS011;31152;49.190;8.122;2023-06-10T14:14:43;5.07;;;3.88;;
30185;SDS011;31152;49.190;8.122;2023-06-10T14:17:11;5.07;;;3.30;;
30185;SDS011;31152;49.190;8.122;2023-06-10T14:19:38;5.72;;;3.53;;
30185;SDS011;31152;49.190;8.122;2023-06-10T14:22:06;3.88;;;3.47;;
30185;SDS011;31152;49.190;8.122;2023-06-10T14:24:34;4.97;;;3.28;;
30185;SDS011;31152;49.190;8.122;2023-06-10T14:27:02;8.32;;;3.10;;
30185;SDS011;31152;49.190;8.122;2023-06-10T14:29:32;3.60;;;3.22;;
30185;SDS011;31152;49.190;8.122;2023-06-10T14:32:00;3.30;;;3.00;;
30185;SDS011;31152;49.190;8.122;2023-06-10T14:34:34;4.15;;;3.25;;
30185;SDS011;31152;49.190;8.122;2023-06-10T14:37:01;4.53;;;3.38;;
30185;SDS011;31152;49.190;8.122;2023-06-10T14:39:30;6.40;;;3.40;;
30185;SDS011;31152;49.190;8.122;2023-06-10T14:41:57;5.38;;;3.60;;
30185;SDS011;31152;49.190;8.122;2023-06-10T14:44:24;4.13;;;3.67;;
30185;SDS011;31152;49.190;8.122;2023-06-10T14:46:51;7.97;;;3.20;;
30185;SDS011;31152;49.190;8.122;2023-06-10T14:49:18;4.78;;;3.35;;
30185;SDS011;31152;49.190;8.122;2023-06-10T14:51:45;4.85;;;3.28;;
30185;SDS011;31152;49.190;8.122;2023-06-10T14:54:12;4.53;;;3.60;;
30185;SDS011;31152;49.190;8.122;2023-06-10T14:56:41;5.85;;;3.20;;
30185;SDS011;31152;49.190;8.122;2023-06-10T14:59:07;7.32;;;3.65;;
30185;SDS011;31152;49.190;8.122;2023-06-10T15:01:34;5.57;;;3.28;;
30185;SDS011;31152;49.190;8.122;2023-06-10T15:04:01;3.88;;;3.38;;
30185;SDS011;31152;49.190;8.122;2023-06-10T15:06:30;3.45;;;3.15;;
30185;SDS011;31152;49.190;8.122;2023-06-10T15:08:57;3.60;;;3.30;;